Hlavní strana
METAR-TAF:

METAR-TAF

Letiště :

Letiště Karlovy Vary

Karlovy Vary, Česká republika

zeměpisná šířka: 50-12N, zeměpisná délka: 012-55E, výška: 603 m

Aktuální stav počasí

Zpráva byla vytvořena před 22 minutami, v 09:00 UTC
Bezvětří
Teplota 6°C
Vlhkost vzduchu 65%
Tlak 1029 hPa
Viditelnost 10 km a více
Žádná oblačnost pod 1500 m, nevyskytují se cumulonimby.

METAR: LKKV 160900Z 00000KT CAVOK 06/M00 Q1029

Čas: 10:22 (09:22 UTC)

Předpověď počasí

Zpráva byla vytvořena před 4 hodinami a 22 minutami, v 05:00 UTC
Předpověď platná od 16 v 06 UTC do 17 v 12 UTC
Východojihovýchodní vítr 3 kt
Viditelnost 10 km a více
Žádná oblačnost pod 1500 m, nevyskytují se cumulonimby.
Dočasný
od 16 v 06 UTC do 16 v 08 UTC
Viditelnost: 2000 m
Polojasno ve výšce 300 ft
kouřmo
Dočasný
od 17 v 03 UTC do 17 v 08 UTC
Viditelnost: 2000 m
Polojasno ve výšce 300 ft
kouřmo

TAF: LKKV 160500Z 1606/1712 11003KT CAVOK TEMPO 1606/1608 2000 BR SCT003 TEMPO 1703/1708 2000 BR SCT003

Stav a předpovědi počasí z více než 4 000 letišť (zprávy METAR a TAF).

Červené a žluté tečky na mapě představují dostupné meteorologické stanice.

Když kurzor umístíte na tečku, zobrazí se název stanice.

Pak kliknutím zobrazíte stav a předpověď počasí.

Chcete-li změnit mapu, kliknutím na zelené tlačítko se znaménkem +mapu přiblížíte, kliknutím na zelené tlačítko se znaménkem – mapu oddálíte a kliknutím na zelené šipky přejdete na sousední mapy.


METAR-TAF: